createdAt,value
2019-04-21T00:00:20.654Z,11.17
2019-04-21T00:03:23.001Z,9.83
2019-04-21T00:06:22.375Z,8.25
2019-04-21T00:09:37.748Z,7.20
2019-04-21T00:12:13.983Z,7.60
2019-04-21T00:15:12.432Z,6.90
2019-04-21T00:17:51.760Z,7.50
2019-04-21T00:20:48.972Z,7.60
2019-04-21T00:23:38.854Z,6.45
2019-04-21T00:26:31.476Z,8.95
2019-04-21T00:29:16.505Z,7.40
2019-04-21T00:31:56.318Z,6.83
2019-04-21T00:34:09.073Z,7.65
2019-04-21T00:36:47.287Z,9.95
2019-04-21T00:39:41.572Z,7.08
2019-04-21T00:41:59.206Z,6.30
2019-04-21T00:44:23.633Z,8.43
2019-04-21T00:46:58.834Z,6.90
2019-04-21T00:49:31.142Z,7.70
2019-04-21T00:55:42.259Z,7.10
2019-04-21T00:58:03.727Z,9.18
2019-04-21T01:00:32.420Z,9.98
2019-04-21T01:03:06.687Z,8.93
2019-04-21T01:05:35.241Z,8.55
2019-04-21T01:07:58.250Z,8.35
2019-04-21T01:10:27.121Z,7.37
2019-04-21T01:13:02.662Z,7.57
2019-04-21T01:15:37.123Z,7.10
2019-04-21T01:18:07.721Z,9.07
2019-04-21T01:20:17.238Z,10.43
2019-04-21T01:22:40.633Z,7.37
2019-04-21T01:25:20.374Z,6.92
2019-04-21T01:27:57.485Z,8.20
2019-04-21T01:30:29.698Z,7.95
2019-04-21T01:33:00.097Z,7.08
2019-04-21T01:35:34.668Z,7.53
2019-04-21T01:38:01.860Z,7.50
2019-04-21T01:40:40.853Z,10.00
2019-04-21T01:43:03.574Z,7.17
2019-04-21T01:45:31.674Z,8.30
2019-04-21T01:48:01.608Z,8.23
2019-04-21T01:50:29.968Z,9.05
2019-04-21T01:53:11.575Z,6.92
2019-04-21T01:56:03.386Z,10.38
2019-04-21T01:58:29.175Z,7.20
2019-04-21T02:01:05.757Z,8.10
2019-04-21T02:06:18.480Z,7.60
2019-04-21T02:08:36.428Z,10.60
2019-04-21T02:13:50.309Z,6.97
2019-04-21T02:16:12.438Z,7.47
2019-04-21T02:18:39.129Z,11.33
2019-04-21T02:21:00.382Z,8.70
2019-04-21T02:23:46.395Z,9.85
2019-04-21T02:26:09.801Z,7.70
2019-04-21T02:31:20.398Z,8.50
2019-04-21T02:33:57.452Z,7.17
2019-04-21T02:36:30.850Z,7.15
2019-04-21T02:41:22.875Z,9.10
2019-04-21T02:43:54.039Z,7.22
2019-04-21T02:46:23.690Z,8.65
2019-04-21T02:48:57.479Z,7.30
2019-04-21T02:51:31.990Z,7.58
2019-04-21T02:54:06.142Z,8.95
2019-04-21T02:56:30.905Z,7.10
2019-04-21T02:59:06.732Z,8.50
2019-04-21T03:02:17.057Z,10.25
2019-04-21T03:04:34.872Z,8.00
2019-04-21T03:09:49.675Z,7.90
2019-04-21T03:12:22.568Z,8.55
2019-04-21T03:15:11.418Z,7.53
2019-04-21T03:17:35.849Z,7.47
2019-04-21T03:20:02.987Z,8.05
2019-04-21T03:22:24.787Z,7.53
2019-04-21T03:37:32.955Z,7.97
2019-04-21T03:40:01.403Z,8.18
2019-04-21T03:45:12.638Z,11.00
2019-04-21T03:47:30.905Z,8.05
2019-04-21T03:52:29.971Z,8.68
2019-04-21T03:55:41.562Z,7.50
2019-04-21T03:57:55.459Z,8.85
2019-04-21T04:00:21.624Z,9.10
2019-04-21T04:08:52.534Z,7.58
2019-04-21T04:11:24.802Z,10.45
2019-04-21T04:16:20.217Z,7.87
2019-04-21T04:23:45.282Z,8.80
2019-04-21T04:26:13.033Z,9.00
2019-04-21T04:33:51.886Z,7.35
2019-04-21T04:38:52.025Z,7.20
2019-04-21T04:41:30.425Z,7.10
2019-04-21T04:43:54.591Z,11.20
2019-04-21T04:46:29.325Z,14.30
2019-04-21T04:49:02.406Z,8.37
2019-04-21T04:51:36.711Z,10.13
2019-04-21T04:53:47.404Z,7.47
2019-04-21T04:56:40.516Z,7.42
2019-04-21T04:59:19.811Z,9.55
2019-04-21T05:01:34.893Z,6.58
2019-04-21T05:04:09.379Z,7.05
2019-04-21T05:16:44.670Z,6.45
2019-04-21T05:23:48.452Z,5.95
2019-04-21T05:26:14.349Z,9.00
2019-04-21T05:28:40.876Z,9.95
2019-04-21T05:31:34.410Z,7.27
2019-04-21T05:34:07.534Z,7.87
2019-04-21T05:36:56.723Z,7.75
2019-04-21T05:39:36.128Z,6.87
2019-04-21T05:41:54.178Z,8.33
2019-04-21T05:44:43.873Z,6.83
2019-04-21T05:47:20.775Z,8.88
2019-04-21T05:49:45.615Z,8.85
2019-04-21T05:52:14.366Z,7.90
2019-04-21T05:57:14.679Z,6.87
2019-04-21T05:59:49.188Z,8.03
2019-04-21T06:02:22.228Z,7.85
2019-04-21T06:07:26.097Z,8.93
2019-04-21T06:09:58.650Z,8.58
2019-04-21T06:12:25.325Z,8.40
2019-04-21T06:14:59.106Z,10.40
2019-04-21T06:17:32.898Z,9.05
2019-04-21T06:19:57.272Z,9.23
2019-04-21T06:22:19.170Z,10.53
2019-04-21T06:25:21.595Z,6.80
2019-04-21T06:27:27.480Z,9.38
2019-04-21T06:29:55.768Z,10.30
2019-04-21T06:40:11.824Z,8.95
2019-04-21T06:42:25.745Z,6.75
2019-04-21T06:44:57.519Z,7.80
2019-04-21T06:47:36.161Z,6.92
2019-04-21T06:49:56.795Z,7.37
2019-04-21T06:52:46.507Z,7.08
2019-04-21T06:55:03.346Z,7.20
2019-04-21T06:57:29.429Z,7.67
2019-04-21T06:59:55.740Z,8.45
2019-04-21T07:02:50.734Z,6.87
2019-04-21T07:05:03.988Z,8.13
2019-04-21T07:07:28.124Z,7.50
2019-04-21T07:10:04.589Z,11.12
2019-04-21T07:12:30.368Z,7.80
2019-04-21T07:14:58.950Z,8.40
2019-04-21T07:17:28.175Z,7.60
2019-04-21T07:20:00.178Z,8.30
2019-04-21T07:22:30.232Z,8.40
2019-04-21T07:25:02.730Z,8.60
2019-04-21T07:30:06.261Z,8.10
2019-04-21T07:32:41.151Z,8.78
2019-04-21T07:35:03.714Z,6.45
2019-04-21T07:37:31.640Z,8.63
2019-04-21T07:39:57.266Z,7.53
2019-04-21T07:42:23.769Z,9.30
2019-04-21T07:44:56.738Z,9.18
2019-04-21T07:47:35.948Z,7.03
2019-04-21T07:50:28.612Z,10.10
2019-04-21T07:53:05.069Z,9.37
2019-04-21T07:57:52.665Z,7.87
2019-04-21T08:00:29.378Z,6.58
2019-04-21T08:02:53.978Z,9.23
2019-04-21T08:05:26.496Z,9.83
2019-04-21T08:08:01.493Z,9.50
2019-04-21T08:10:27.309Z,7.75
2019-04-21T08:12:54.343Z,14.65
2019-04-21T08:15:30.952Z,8.70
2019-04-21T08:17:53.588Z,6.90
2019-04-21T08:20:24.641Z,10.48
2019-04-21T08:22:58.873Z,7.43
2019-04-21T08:25:27.706Z,8.98
2019-04-21T08:28:01.444Z,9.10
2019-04-21T08:30:30.539Z,7.75
2019-04-21T08:36:01.135Z,12.10
2019-04-21T08:37:57.416Z,9.45
2019-04-21T08:40:33.195Z,11.48
2019-04-21T08:42:55.258Z,6.65
2019-04-21T08:47:58.218Z,6.58
2019-04-21T08:50:25.642Z,8.50
2019-04-21T08:53:04.006Z,6.30
2019-04-21T08:56:04.477Z,8.90
2019-04-21T08:58:56.175Z,9.05
2019-04-21T09:01:39.834Z,7.97
2019-04-21T09:04:17.192Z,8.35
2019-04-21T09:06:55.576Z,8.98
2019-04-21T09:09:11.802Z,7.85
2019-04-21T09:11:46.152Z,7.08
2019-04-21T09:14:11.526Z,5.60
2019-04-21T09:16:35.536Z,5.83
2019-04-21T09:19:12.909Z,7.20
2019-04-21T09:21:43.588Z,7.77
2019-04-21T09:24:13.055Z,5.25
2019-04-21T09:26:40.656Z,5.33
2019-04-21T09:29:08.059Z,7.22
2019-04-21T09:31:31.978Z,5.62
2019-04-21T09:34:00.302Z,6.60
2019-04-21T09:36:35.052Z,6.75
2019-04-21T09:39:05.511Z,5.90
2019-04-21T09:41:27.687Z,6.42
2019-04-21T09:43:57.910Z,6.00
2019-04-21T09:46:29.896Z,4.90
2019-04-21T09:49:05.146Z,5.80
2019-04-21T09:51:30.589Z,7.67
2019-04-21T09:54:05.844Z,4.70
2019-04-21T09:56:47.326Z,6.85
2019-04-21T09:59:23.722Z,6.45
2019-04-21T10:02:09.578Z,7.60
2019-04-21T10:04:33.584Z,5.87
2019-04-21T10:07:08.975Z,5.70
2019-04-21T10:09:37.696Z,5.28
2019-04-21T10:12:09.820Z,7.25
2019-04-21T10:14:39.170Z,4.95
2019-04-21T10:17:37.510Z,8.08
2019-04-21T10:20:09.348Z,7.35
2019-04-21T10:22:39.227Z,8.25
2019-04-21T10:25:10.297Z,4.92
2019-04-21T10:27:41.118Z,7.50
2019-04-21T10:30:10.172Z,5.53
2019-04-21T10:32:40.605Z,6.53
2019-04-21T10:35:11.359Z,9.45
2019-04-21T10:37:52.692Z,7.53
2019-04-21T10:40:09.900Z,6.35
2019-04-21T10:42:38.886Z,4.47
2019-04-21T10:45:07.658Z,8.08
2019-04-21T10:47:36.873Z,6.90
2019-04-21T10:50:06.713Z,5.60
2019-04-21T10:52:53.346Z,5.87
2019-04-21T10:55:40.255Z,7.78
2019-04-21T10:58:11.925Z,7.95
2019-04-21T11:00:48.481Z,6.70
2019-04-21T11:03:44.778Z,5.60
2019-04-21T11:06:28.760Z,6.92
2019-04-21T11:09:07.302Z,9.63
2019-04-21T11:11:37.902Z,6.60
2019-04-21T11:14:21.433Z,7.42
2019-04-21T11:17:07.927Z,10.08
2019-04-21T11:19:38.946Z,7.55
2019-04-21T11:22:07.214Z,9.63
2019-04-21T11:24:36.703Z,8.70
2019-04-21T11:27:06.725Z,7.97
2019-04-21T11:29:35.138Z,6.75
2019-04-21T11:32:03.396Z,6.20
2019-04-21T11:34:41.306Z,7.00
2019-04-21T11:37:12.313Z,10.13
2019-04-21T11:39:51.167Z,6.90
2019-04-21T11:42:19.502Z,6.10
2019-04-21T11:44:48.960Z,7.00
2019-04-21T11:47:25.754Z,5.42
2019-04-21T11:49:54.863Z,7.72
2019-04-21T11:52:22.906Z,6.75
2019-04-21T11:54:53.136Z,9.63
2019-04-21T11:57:27.617Z,8.75
2019-04-21T11:59:51.594Z,9.43
2019-04-21T12:02:21.490Z,7.15
2019-04-21T12:04:49.597Z,6.35
2019-04-21T12:07:17.630Z,11.45
2019-04-21T12:09:45.822Z,7.05
2019-04-21T12:12:14.988Z,5.67
2019-04-21T12:14:43.921Z,6.90
2019-04-21T12:17:12.150Z,9.13
2019-04-21T12:19:40.904Z,6.28
2019-04-21T12:22:18.232Z,4.20
2019-04-21T12:24:39.712Z,6.60
2019-04-21T12:27:07.922Z,8.00
2019-04-21T12:29:37.709Z,6.00
2019-04-21T12:32:26.241Z,5.65
2019-04-21T12:34:55.341Z,5.20
2019-04-21T12:37:24.665Z,5.10
2019-04-21T12:39:52.775Z,6.22
2019-04-21T12:42:20.835Z,6.10
2019-04-21T12:44:49.512Z,5.33
2019-04-21T12:47:17.526Z,6.03
2019-04-21T12:49:45.685Z,5.22
2019-04-21T12:52:13.792Z,8.75
2019-04-21T12:54:41.881Z,6.28
2019-04-21T12:57:09.898Z,5.85
2019-04-21T12:59:39.519Z,8.20
2019-04-21T13:02:07.643Z,4.85
2019-04-21T13:04:35.887Z,5.22
2019-04-21T13:07:03.872Z,6.53
2019-04-21T13:09:32.483Z,7.80
2019-04-21T13:12:01.520Z,5.50
2019-04-21T13:14:31.561Z,5.10
2019-04-21T13:16:59.654Z,5.27
2019-04-21T13:19:29.349Z,6.83
2019-04-21T13:21:58.255Z,5.15
2019-04-21T13:24:26.651Z,7.00
2019-04-21T13:26:58.439Z,6.03
2019-04-21T13:29:26.002Z,6.42
2019-04-21T13:31:54.295Z,6.20
2019-04-21T13:34:24.052Z,4.37
2019-04-21T13:36:53.966Z,5.90
2019-04-21T13:40:09.531Z,9.50
2019-04-21T13:42:21.865Z,4.47
2019-04-21T13:44:42.234Z,5.00
2019-04-21T13:47:12.502Z,5.00
2019-04-21T13:49:41.485Z,22.30
2019-04-21T13:52:10.681Z,9.70
2019-04-21T13:54:39.882Z,5.95
2019-04-21T13:57:08.400Z,5.00
2019-04-21T13:59:38.497Z,5.00
2019-04-21T14:02:06.887Z,4.83
2019-04-21T14:04:35.643Z,5.20
2019-04-21T14:07:04.081Z,5.50
2019-04-21T14:09:40.304Z,4.10
2019-04-21T14:12:01.722Z,4.43
2019-04-21T14:14:30.384Z,6.40
2019-04-21T14:17:00.412Z,5.78
2019-04-21T14:19:28.793Z,5.70
2019-04-21T14:21:57.113Z,4.70
2019-04-21T14:24:26.700Z,5.85
2019-04-21T14:26:56.196Z,7.40
2019-04-21T14:29:25.660Z,4.50
2019-04-21T14:31:53.750Z,5.80
2019-04-21T14:34:22.001Z,3.65
2019-04-21T14:36:50.792Z,4.10
2019-04-21T14:39:18.889Z,4.30
2019-04-21T14:41:48.251Z,5.17
2019-04-21T14:44:16.313Z,4.53
2019-04-21T14:47:03.002Z,6.50
2019-04-21T14:49:41.593Z,7.60
2019-04-21T14:52:28.885Z,15.20
2019-04-21T14:55:14.509Z,5.30
2019-04-21T14:57:43.204Z,4.25
2019-04-21T15:00:13.269Z,6.78
2019-04-21T15:02:41.630Z,2.80
2019-04-21T15:05:11.477Z,5.30
2019-04-21T15:07:39.811Z,4.03
2019-04-21T15:10:15.351Z,4.40
2019-04-21T15:12:39.390Z,6.10
2019-04-21T15:15:07.777Z,4.97
2019-04-21T15:17:36.070Z,3.30
2019-04-21T15:20:10.185Z,3.83
2019-04-21T15:22:34.568Z,5.50
2019-04-21T15:25:02.934Z,7.22
2019-04-21T15:27:30.927Z,7.35
2019-04-21T15:29:58.960Z,4.00
2019-04-21T15:32:28.353Z,3.60
2019-04-21T15:34:57.954Z,4.80
2019-04-21T15:37:28.180Z,3.00
2019-04-21T15:39:56.562Z,2.77
2019-04-21T15:42:24.510Z,5.10
2019-04-21T15:44:54.655Z,4.90
2019-04-21T15:47:23.942Z,5.33
2019-04-21T15:50:03.617Z,3.08
2019-04-21T15:52:28.133Z,5.97
2019-04-21T15:55:08.391Z,4.80
2019-04-21T15:58:07.729Z,3.83
2019-04-21T16:00:42.805Z,7.60
2019-04-21T16:03:10.957Z,11.15
2019-04-21T16:05:40.592Z,10.50
2019-04-21T16:08:10.125Z,9.35
2019-04-21T16:10:45.339Z,7.70
2019-04-21T16:13:09.691Z,5.67
2019-04-21T16:15:39.016Z,4.90
2019-04-21T16:18:07.393Z,5.60
2019-04-21T16:20:35.543Z,4.50
2019-04-21T16:23:04.566Z,4.10
2019-04-21T16:25:32.848Z,5.92
2019-04-21T16:28:01.677Z,8.50
2019-04-21T16:30:30.920Z,11.57
2019-04-21T16:32:59.940Z,6.30
2019-04-21T16:35:29.590Z,7.85
2019-04-21T16:37:59.488Z,8.28
2019-04-21T16:40:34.754Z,11.80
2019-04-21T16:42:58.362Z,11.10
2019-04-21T16:45:26.794Z,7.78
2019-04-21T16:47:55.652Z,9.18
2019-04-21T16:50:25.758Z,8.23
2019-04-21T16:52:58.164Z,8.15
2019-04-21T16:55:53.178Z,15.93
2019-04-21T16:58:40.947Z,11.57
2019-04-21T17:01:16.223Z,11.30
2019-04-21T17:03:42.470Z,9.03
2019-04-21T17:06:11.198Z,9.53
2019-04-21T17:08:40.953Z,11.37
2019-04-21T17:11:17.308Z,8.98
2019-04-21T17:13:39.805Z,11.08
2019-04-21T17:16:38.696Z,9.20
2019-04-21T17:18:51.333Z,13.88
2019-04-21T17:21:09.238Z,12.63
2019-04-21T17:23:38.312Z,8.28
2019-04-21T17:26:06.292Z,8.83
2019-04-21T17:28:34.556Z,9.20
2019-04-21T17:31:02.586Z,9.08
2019-04-21T17:33:31.965Z,10.20
2019-04-21T17:36:00.781Z,10.68
2019-04-21T17:38:30.067Z,16.27
2019-04-21T17:41:09.334Z,11.10
2019-04-21T17:43:29.848Z,11.70
2019-04-21T17:45:59.316Z,11.03
2019-04-21T17:48:29.275Z,11.00
2019-04-21T17:51:11.835Z,9.55
2019-04-21T17:53:49.494Z,8.10
2019-04-21T17:56:41.802Z,8.10
2019-04-21T17:59:04.408Z,9.75
2019-04-21T18:01:37.270Z,9.80
2019-04-21T18:04:10.810Z,10.70
2019-04-21T18:06:36.887Z,8.33
2019-04-21T18:09:08.894Z,8.18
2019-04-21T18:11:39.566Z,9.13
2019-04-21T18:13:47.268Z,10.45
2019-04-21T18:16:25.303Z,12.25
2019-04-21T18:18:46.638Z,15.68
2019-04-21T18:21:22.832Z,10.15
2019-04-21T18:24:04.965Z,7.47
2019-04-21T18:26:34.736Z,10.30
2019-04-21T18:28:55.245Z,9.68
2019-04-21T18:31:22.935Z,8.20
2019-04-21T18:34:11.043Z,8.15
2019-04-21T18:36:45.447Z,7.60
2019-04-21T18:39:46.371Z,8.50
2019-04-21T18:42:42.123Z,8.58
2019-04-21T18:45:56.453Z,10.50
2019-04-21T18:48:19.221Z,7.00
2019-04-21T18:50:50.978Z,9.95
2019-04-21T18:53:40.081Z,16.48
2019-04-21T18:55:55.794Z,14.68
2019-04-21T18:58:18.076Z,14.40
2019-04-21T19:00:46.514Z,22.50
2019-04-21T19:03:20.895Z,24.27
2019-04-21T19:05:50.232Z,23.62
2019-04-21T19:08:31.500Z,27.70
2019-04-21T19:11:08.243Z,28.02
2019-04-21T19:13:44.172Z,22.22
2019-04-21T19:18:56.458Z,24.30
2019-04-21T19:21:02.997Z,33.00
2019-04-21T19:23:45.697Z,30.45
2019-04-21T19:26:16.134Z,27.42
2019-04-21T19:28:41.929Z,26.17
2019-04-21T19:31:11.065Z,28.35
2019-04-21T19:33:30.014Z,27.82
2019-04-21T19:35:47.637Z,24.87
2019-04-21T19:38:22.629Z,26.10
2019-04-21T19:40:59.258Z,24.67
2019-04-21T19:43:36.982Z,24.67
2019-04-21T19:46:02.940Z,17.17
2019-04-21T19:48:34.525Z,15.40
2019-04-21T19:51:01.617Z,13.93
2019-04-21T19:53:32.931Z,11.83
2019-04-21T19:55:44.133Z,14.03
2019-04-21T19:58:12.721Z,13.35
2019-04-21T20:00:42.181Z,13.00
2019-04-21T20:03:10.583Z,12.17
2019-04-21T20:05:43.237Z,13.13
2019-04-21T20:08:23.429Z,14.25
2019-04-21T20:10:59.350Z,13.97
2019-04-21T20:13:42.138Z,10.93
2019-04-21T20:15:58.369Z,9.23
2019-04-21T20:18:21.262Z,10.63
2019-04-21T20:20:40.831Z,8.18
2019-04-21T20:23:15.641Z,9.28
2019-04-21T20:25:43.692Z,8.33
2019-04-21T20:28:15.678Z,9.65
2019-04-21T20:31:00.713Z,7.60
2019-04-21T20:35:55.880Z,8.75
2019-04-21T20:38:19.135Z,9.55
2019-04-21T20:40:45.357Z,8.13
2019-04-21T20:43:30.949Z,10.13
2019-04-21T20:46:00.591Z,10.58
2019-04-21T20:48:17.578Z,8.68
2019-04-21T20:51:00.241Z,7.60
2019-04-21T20:53:27.409Z,7.72
2019-04-21T20:55:52.796Z,7.67
2019-04-21T20:58:24.112Z,8.43
2019-04-21T21:01:16.809Z,6.97
2019-04-21T21:03:24.726Z,7.10
2019-04-21T21:05:49.950Z,8.00
2019-04-21T21:08:29.491Z,7.83
2019-04-21T21:10:53.005Z,7.37
2019-04-21T21:13:35.079Z,9.98
2019-04-21T21:16:05.792Z,6.57
2019-04-21T21:18:44.355Z,9.03
2019-04-21T21:20:54.103Z,8.40
2019-04-21T21:23:14.535Z,7.62
2019-04-21T21:26:01.995Z,7.58
2019-04-21T21:28:16.927Z,7.50
2019-04-21T21:30:52.914Z,9.00
2019-04-21T21:33:27.598Z,8.30
2019-04-21T21:35:46.607Z,8.58
2019-04-21T21:38:28.408Z,6.87
2019-04-21T21:40:45.537Z,7.30
2019-04-21T21:43:10.717Z,7.72
2019-04-21T21:45:40.076Z,6.67
2019-04-21T21:48:21.762Z,10.88
2019-04-21T21:50:45.705Z,6.47
2019-04-21T21:53:13.002Z,7.75
2019-04-21T21:55:35.899Z,7.00
2019-04-21T21:58:06.397Z,8.55
2019-04-21T22:00:37.998Z,6.15
2019-04-21T22:03:14.965Z,7.53
2019-04-21T22:05:48.253Z,9.43
2019-04-21T22:08:04.868Z,5.72
2019-04-21T22:10:32.889Z,7.50
2019-04-21T22:13:07.176Z,6.53
2019-04-21T22:15:33.713Z,9.50
2019-04-21T22:18:16.780Z,7.00
2019-04-21T22:20:48.613Z,6.22
2019-04-21T22:23:07.294Z,6.90
2019-04-21T22:25:32.033Z,7.00
2019-04-21T22:27:59.920Z,8.53
2019-04-21T22:30:36.260Z,8.00
2019-04-21T22:33:16.260Z,8.83
2019-04-21T22:36:02.232Z,5.37
2019-04-21T22:38:38.609Z,6.28
2019-04-21T22:41:06.021Z,6.20
2019-04-21T22:43:29.223Z,5.80
2019-04-21T22:45:53.690Z,8.95
2019-04-21T22:48:26.270Z,8.53
2019-04-21T22:50:52.711Z,7.35
2019-04-21T22:53:21.731Z,7.47
2019-04-21T22:56:00.375Z,5.80
2019-04-21T22:58:25.669Z,9.58
2019-04-21T23:00:56.103Z,7.35
2019-04-21T23:03:24.239Z,9.48
2019-04-21T23:05:53.522Z,9.50
2019-04-21T23:08:26.630Z,5.78
2019-04-21T23:11:00.889Z,8.20
2019-04-21T23:13:25.939Z,11.63
2019-04-21T23:15:57.639Z,9.90
2019-04-21T23:18:40.034Z,5.60
2019-04-21T23:21:10.468Z,7.40
2019-04-21T23:23:45.085Z,5.80
2019-04-21T23:26:17.412Z,5.78
2019-04-21T23:28:45.518Z,6.58
2019-04-21T23:31:12.470Z,6.70
2019-04-21T23:33:25.733Z,12.90
2019-04-21T23:36:02.660Z,7.30
2019-04-21T23:38:29.137Z,8.08
2019-04-21T23:40:58.222Z,6.60
2019-04-21T23:43:30.045Z,6.00
2019-04-21T23:46:00.789Z,7.92
2019-04-21T23:48:43.824Z,6.45
2019-04-21T23:51:13.899Z,6.20
2019-04-21T23:53:31.077Z,8.90
2019-04-21T23:56:20.044Z,6.80
2019-04-21T23:58:54.925Z,5.90
